Latest Coastal Weather Observations for Williamtown

IDN60701

Issued at 8:01 am EDT Saturday 28 March 2015 (issued every 10 minutes, with the page automatically refreshed every 10 minutes)

About coastal observations | Map of coastal stations | Coastal observations for NSW | Marine services | Other Formats
Station Details ID: 061078 Name: WILLIAMTOWN RAAF Lat: -32.79 Lon: 151.84 Height: 9.0 m
Data from the previous 72 hours. | See also: Recent months at Williamtown
Date/Time
EDT
Temp

°C
Wind Pressure Rain
since 9am
mm
Weather Cloud Vis
km
Sea
Height
m
Swell
Dir
 
Speed
knots
Gust
knots
hPa Trend Height
m
Period
s
Dir
28/08:00am 12.7 NW 7 8 1022.5 - 0.0 - - 10 - - - -
28/07:30am 11.0 NW 7 8 1022.2 - 0.0 - - 10 - - - -
28/07:00am 10.0 NW 6 6 1021.8 - 0.0 - - 10 - - - -
28/06:30am 10.1 NW 6 7 1021.5 - 0.0 - - 10 - - - -
28/06:00am 10.1 NW 5 6 1021.2 - 0.0 - - 10 - - - -
28/05:30am 10.6 NW 6 6 1020.7 - 0.0 - - 10 - - - -
28/05:00am 11.4 NW 7 8 1020.3 - 0.0 - - 10 - - - -
28/04:30am 10.8 WNW 5 6 1020.2 - 0.0 - - 10 - - - -
28/04:00am 11.3 NW 6 7 1020.1 - 0.0 - - 10 - - - -
28/03:30am 10.7 WNW 5 5 1020.1 - 0.0 - - 10 - - - -
28/03:00am 11.1 WNW 4 5 1020.2 - 0.0 - - 10 - - - -
28/02:30am 11.5 NW 6 7 1020.4 - 0.0 - - 10 - - - -
28/02:00am 11.7 WNW 6 7 1020.5 - 0.0 - - 10 - - - -
28/01:00am 11.7 NW 5 6 1020.4 - 0.0 - - 42 - - - -
28/12:30am 10.9 CALM 0 0 1020.3 - 0.0 - - 10 - - - -
 
Date/Time
EDT
Temp

°C
Wind Pressure Rain
since 9am
mm
Weather Cloud Vis
km
Sea
Height
m
Swell
Dir
 
Speed
knots
Gust
knots
hPa Trend Height
m
Period
s
Dir
27/11:30pm 11.6 NW 1 4 1020.1 - 0.0 - - 10 - - - -
27/11:00pm 11.5 SW 2 5 1020.1 - 0.0 - - 10 - - - -
27/10:30pm 12.9 CALM 0 0 1020.0 - 0.0 - - 10 - - - -
27/10:00pm 13.7 CALM 0 0 1019.9 - 0.0 - - 10 - - - -
27/09:30pm 15.0 E 4 4 1019.6 - 0.0 - - 10 - - - -
27/09:00pm 15.2 ESE 5 6 1019.4 - 0.0 - - 10 - - - -
27/08:30pm 17.2 NE 5 7 1018.9 - 0.0 - - 10 - - - -
27/08:00pm 17.8 NE 4 7 1018.5 - 0.0 - - 10 - - - -
27/07:30pm 18.8 ENE 6 8 1018.2 - 0.0 - - 10 - - - -
27/07:00pm 19.3 ENE 8 10 1017.8 - 0.0 - - 10 - - - -
27/06:30pm 21.1 E 7 9 1017.6 - 0.0 - - 10 - - - -
27/06:00pm 21.8 ESE 8 10 1017.4 - 0.0 - - 10 - - - -
27/05:30pm 22.3 ESE 9 12 1017.1 - 0.0 - - 10 - - - -
27/05:00pm 23.1 ESE 11 14 1017.0 - 0.0 - - 10 - - - -
27/04:30pm 26.2 W 8 12 1016.9 - 0.0 - - 10 - - - -
27/04:00pm 26.1 NW 9 16 1017.3 - 0.0 - - 10 - - - -
27/03:30pm 25.4 NW 7 13 1017.7 - 0.0 - - 10 - - - -
27/03:00pm 25.2 WNW 10 15 1018.0 - 0.0 - - 10 - - - -
27/02:30pm 24.7 W 9 15 1018.5 - 0.0 - - 10 - - - -
27/02:00pm 24.1 W 11 15 1018.9 - 0.0 - - 10 - - - -
27/01:30pm 24.4 WNW 13 19 1019.2 - 0.0 - - 10 - - - -
27/01:00pm 23.4 WNW 14 19 1019.6 - 0.0 - Mostly clear 10 - - - -
27/12:30pm 23.0 WNW 14 20 1020.2 - 0.0 - Mostly clear 10 - - - -
27/12:00pm 21.8 WNW 15 20 1020.7 - 0.0 - - 10 - - - -
27/11:30am 21.6 WNW 15 19 1021.0 - 0.0 - - 10 - - - -
27/11:00am 20.9 WNW 13 18 1021.2 - 0.0 - - 10 - - - -
27/10:30am 19.4 WNW 14 19 1021.6 - 0.0 - - 10 - - - -
27/10:00am 18.8 WNW 14 20 1021.7 - 0.0 - - 10 - - - -
27/09:30am 17.3 WNW 16 19 1021.6 - 0.0 - - 10 - - - -
27/09:00am 15.6 WNW 12 18 1021.5 - 0.0 - - 10 - - - -
27/08:30am 14.3 WNW 9 13 1021.4 - 0.0 - - 10 - - - -
27/08:00am 11.9 WNW 8 9 1021.3 - 0.0 - - 10 - - - -
27/07:30am 10.0 WNW 6 7 1021.0 - 0.0 - - 10 - - - -
27/07:00am 10.0 NW 6 7 1020.8 - 0.0 - - 10 - - - -
27/06:30am 9.9 NW 7 7 1020.4 - 0.0 - - 10 - - - -
27/06:00am 9.1 NW 4 5 1020.2 - 0.0 - - 10 - - - -
27/05:30am 8.8 WNW 3 5 1019.8 - 0.0 - - 10 - - - -
27/05:00am 10.1 W 5 6 1019.8 - 0.0 - - 10 - - - -
27/04:30am 10.3 CALM 0 0 1019.7 - 0.0 - - 10 - - - -
27/04:00am 11.5 CALM 0 0 1019.7 - 0.0 - - 10 - - - -
27/03:30am 14.0 WNW 5 5 1019.7 - 0.0 - - 10 - - - -
27/03:00am 14.2 WNW 5 6 1019.7 - 0.0 - - 10 - - - -
27/02:30am 14.1 W 5 6 1019.8 - 0.0 - - 10 - - - -
27/02:00am 13.6 CALM 0 0 1019.8 - 0.0 - - 10 - - - -
27/01:30am 15.3 CALM 0 0 1019.7 - 0.0 - - 10 - - - -
27/01:00am 16.0 WSW 6 6 1019.6 - 0.0 - - 10 - - - -
27/12:30am 16.5 WSW 8 10 1019.4 - 0.0 - - 10 - - - -
27/12:00am 15.9 W 4 4 1019.2 - 0.0 - - 8 - - - -
 
Date/Time
EDT
Temp

°C
Wind Pressure Rain
since 9am
mm
Weather Cloud Vis
km
Sea
Height
m
Swell
Dir
 
Speed
knots
Gust
knots
hPa Trend Height
m
Period
s
Dir
26/11:30pm 15.6 WNW 4 5 1019.0 - 0.0 - - 10 - - - -
26/11:00pm 16.5 W 4 4 1019.0 - 0.0 - - 10 - - - -
26/10:30pm 17.1 CALM 0 0 1018.9 - 0.0 - - 10 - - - -
26/10:00pm 18.1 SW 2 3 1018.8 - 0.0 - - 10 - - - -
26/09:30pm 18.3 WNW 4 4 1018.5 - 0.0 - - 10 - - - -
26/09:00pm 18.2 W 4 6 1017.9 - 0.0 - - 10 - - - -
26/08:30pm 20.2 ENE 4 6 1017.3 - 0.0 - - 10 - - - -
26/08:00pm 20.6 ESE 4 5 1016.7 - 0.0 - - 10 - - - -
26/07:30pm 21.4 SSE 4 6 1016.1 - 0.0 - - 10 - - - -
26/07:00pm 21.8 SE 8 10 1015.8 - 0.0 - - 10 - - - -
26/06:30pm 24.5 S 6 8 1015.2 - 0.0 - - 10 - - - -
26/06:00pm 27.7 W 8 12 1014.8 - 0.0 - - 10 - - - -
26/05:30pm 28.5 WNW 10 15 1014.5 - 0.0 - - 10 - - - -
26/05:00pm 28.8 WNW 12 16 1014.3 - 0.0 - - 10 - - - -
26/04:30pm 29.1 WNW 11 20 1014.4 - 0.0 - - 10 - - - -
26/04:00pm 28.9 WNW 15 20 1014.6 - 0.0 - - 10 - - - -
26/03:30pm 28.6 WNW 12 18 1014.9 - 0.0 - Mostly clear 10 - - - -
26/03:00pm 28.3 WNW 16 23 1015.2 F 0.0 Fine Mostly clear 30 - - - -
26/02:30pm 28.1 WNW 12 20 1015.5 - 0.0 - Mostly clear 10 - - - -
26/02:00pm 28.1 WNW 14 19 1015.9 - 0.0 - Mostly clear 10 - - - -
26/01:30pm 27.0 WNW 12 16 1016.2 - 0.0 - Mostly clear 10 - - - -
26/01:00pm 26.8 NW 11 17 1016.5 - 0.0 - Mostly clear 10 - - - -
26/12:30pm 25.6 WNW 14 19 1016.9 - 0.0 - Mostly clear 10 - - - -
26/12:00pm 26.2 WNW 12 19 1017.4 F 0.0 Fine Mostly clear 30 - - - -
26/11:30am 24.4 WNW 12 16 1017.6 - 0.0 - Mostly clear 10 - - - -
26/11:00am 23.8 WNW 13 17 1017.8 - 0.0 - Mostly clear 10 - - - -
26/10:30am 22.7 NW 11 16 1018.1 - 0.0 - Mostly clear 10 - - - -
26/10:00am 21.8 WNW 10 16 1018.2 - 0.0 - Mostly clear 10 - - - -
26/09:30am 20.3 WNW 11 15 1018.2 - 0.0 - Mostly clear 10 - - - -
26/09:00am 19.3 WNW 12 16 1018.0 R 0.0 Fine Mostly clear 25 - - - -
26/08:30am 18.0 WNW 10 14 1017.7 - 0.0 - Mostly clear 10 - - - -
26/08:00am 16.9 WNW 9 12 1017.6 - 0.0 - Mostly clear 10 - - - -
26/07:30am 15.8 WNW 7 9 1017.3 - 0.0 - Mostly clear 10 - - - -
26/07:00am 15.3 NW 7 8 1016.9 - 0.0 - Mostly clear 10 - - - -
26/06:30am 14.9 WNW 7 8 1016.7 - 0.0 - Mostly clear 10 - - - -
26/06:00am 14.5 CALM 0 0 1016.4 F 0.0 Fine Clear 25 - - - -
26/05:30am 14.7 CALM 0 0 1016.1 - 0.0 - - 10 - - - -
26/05:00am 14.9 CALM 0 0 1016.1 - 0.0 - - 10 - - - -
26/04:30am 15.0 CALM 0 0 1016.1 - 0.0 - - 10 - - - -
26/04:00am 15.5 CALM 0 0 1015.9 - 0.0 - - 10 - - - -
26/03:30am 15.5 CALM 0 0 1016.1 - 0.0 - - 10 - - - -
26/03:00am 15.9 CALM 0 0 1016.4 - 0.0 - - 10 - - - -
26/02:30am 16.3 CALM 0 0 1016.7 - 0.0 - - 10 - - - -
26/02:00am 16.7 CALM 0 0 1017.0 - 0.0 - - 10 - - - -
26/01:30am 17.1 CALM 0 0 1017.2 - 0.0 - Partly cloudy 10 - - - -
26/01:00am 17.4 ENE 4 4 1017.4 - 0.0 - Partly cloudy 10 - - - -
26/12:30am 17.9 ENE 3 4 1017.6 - 0.0 - Partly cloudy 10 - - - -
26/12:00am 19.7 ENE 4 5 1017.7 - 0.0 - Partly cloudy 10 - - - -
 
Date/Time
EDT
Temp

°C
Wind Pressure Rain
since 9am
mm
Weather Cloud Vis
km
Sea
Height
m
Swell
Dir
 
Speed
knots
Gust
knots
hPa Trend Height
m
Period
s
Dir
25/11:30pm 20.2 ENE 4 5 1017.9 - 0.0 - Cloudy 10 - - - -
25/11:00pm 19.7 ENE 1 5 1018.0 - 0.0 - Partly cloudy 10 - - - -
25/10:30pm 19.5 CALM 0 0 1018.2 - 0.0 - Partly cloudy 10 - - - -
25/10:00pm 19.5 ENE 3 5 1018.2 - 0.0 - Partly cloudy 10 - - - -
25/09:30pm 20.0 ENE 4 6 1018.1 - 0.0 - Partly cloudy 10 - - - -
25/09:00pm 21.1 E 6 7 1017.9 - 0.0 - Cloudy 10 - - - -
25/08:30pm 21.3 E 7 9 1017.7 - 0.0 - Partly cloudy 10 - - - -
25/08:00pm 21.1 ESE 9 11 1017.4 - 0.0 - Partly cloudy 10 - - - -
25/07:30pm 21.1 SE 8 10 1017.4 - 0.0 - Partly cloudy 10 - - - -
25/07:00pm 20.5 SE 7 9 1017.2 - 0.0 - Partly cloudy 10 - - - -
25/06:30pm 21.2 SE 9 12 1016.9 - 0.0 - Mostly clear 10 - - - -
25/06:00pm 21.6 SE 11 14 1016.5 - 0.0 - Mostly clear 10 - - - -
25/05:30pm 22.7 SSE 12 16 1016.2 - 0.0 - Mostly clear 10 - - - -
25/05:00pm 22.9 SSE 12 15 1016.2 - 0.0 - Mostly clear 10 - - - -
25/04:30pm 23.4 SSE 14 18 1016.1 - 0.0 - Mostly clear 10 - - - -
25/04:00pm 23.4 S 14 18 1016.3 - 0.0 - Mostly clear 10 - - - -
25/03:30pm 23.9 S 14 18 1016.3 - 0.0 - Mostly clear 10 - - - -
25/03:00pm 23.6 S 15 21 1016.2 R 0.0 Fine Mostly clear 30 - - - -
25/02:30pm 23.4 S 16 20 1016.4 - 0.0 - Mostly clear 10 - - - -
25/02:00pm 23.5 S 15 20 1016.3 - 0.0 - Mostly clear 10 - - - -
25/01:30pm 23.5 S 14 19 1016.7 - 0.0 - Mostly clear 10 - - - -
25/01:00pm 23.5 SSW 14 20 1017.2 - 0.0 - Mostly clear 10 - - - -
25/12:30pm 22.6 S 13 18 1017.4 - 0.0 - Partly cloudy 10 - - - -
25/12:00pm 22.5 S 13 19 1017.3 R 0.0 Fine Partly cloudy 30 - - - -
25/11:30am 21.7 S 11 16 1017.4 - 0.0 - Partly cloudy 10 - - - -
25/11:00am 22.1 S 9 12 1017.6 - 0.0 - Partly cloudy 10 - - - -
25/10:30am 22.0 SSW 8 11 1017.6 - 0.0 - Partly cloudy 10 - - - -
25/10:00am 21.3 WSW 7 9 1017.4 - 0.0 - Mostly clear 10 - - - -
25/09:30am 20.6 W 6 9 1017.1 - 0.0 - Mostly clear 10 - - - -
25/09:00am 19.3 W 6 8 1016.6 R 4.6 Fine Mostly clear 30 - - - -
25/08:30am 18.1 W 7 9 1016.3 - 4.6 - Mostly clear 10 - - - -

Other Formats:

Comma delimited format used in spreadsheet applications
http://www.bom.gov.au/fwo/IDN60701/IDN60701.94776.axf

JavaScript Object Notation format (JSON) in row-major order
http://www.bom.gov.au/fwo/IDN60701/IDN60701.94776.json